Time;durP1;ratioP1;P1;durP2;ratioP2;P2;SDS_P1;SDS_P2;PMS_P1;PMS_P2;Temp;Humidity;BMP_temperature;BMP_pressure;BME280_temperature;BME280_humidity;BME280_pressure;Samples;Min_cycle;Max_cycle;Signal;HPM_P1;HPM_P2
2021/08/24 00:02:10;;;;;;;6.87;4.43;;;20.70;99.90;;;;;;4986382;28;20207;-73
2021/08/24 00:04:38;;;;;;;4.93;4.50;;;20.70;99.90;;;;;;4986237;28;20946;-73
2021/08/24 00:07:04;;;;;;;5.10;4.47;;;20.60;99.90;;;;;;5000613;28;20219;-73
2021/08/24 00:09:31;;;;;;;6.43;5.20;;;20.60;99.90;;;;;;4999512;28;20917;-73
2021/08/24 00:11:57;;;;;;;5.60;5.10;;;20.50;99.90;;;;;;5002006;28;20465;-73
2021/08/24 00:14:23;;;;;;;5.23;4.73;;;20.50;99.90;;;;;;5007952;28;20436;-72
2021/08/24 00:16:48;;;;;;;5.60;5.10;;;20.50;99.90;;;;;;5002775;28;20220;-73
2021/08/24 00:19:14;;;;;;;5.80;4.83;;;20.40;99.90;;;;;;5001854;28;20536;-72
2021/08/24 00:21:40;;;;;;;5.83;5.27;;;20.40;99.90;;;;;;4985883;28;20195;-73
2021/08/24 00:24:07;;;;;;;5.40;4.90;;;20.40;99.90;;;;;;4984590;28;20201;-72
2021/08/24 00:26:34;;;;;;;5.80;4.60;;;20.30;99.90;;;;;;5000072;28;20527;-72
2021/08/24 00:28:59;;;;;;;4.70;4.30;;;20.30;99.90;;;;;;5000120;28;20456;-71
2021/08/24 00:31:25;;;;;;;6.20;5.40;;;20.40;99.90;;;;;;5001926;28;20499;-72
2021/08/24 00:33:51;;;;;;;5.10;4.60;;;20.30;99.90;;;;;;4984557;28;20638;-71
2021/08/24 00:36:19;;;;;;;8.70;5.30;;;20.40;99.90;;;;;;4979389;28;20267;-73
2021/08/24 00:38:46;;;;;;;5.70;5.20;;;20.30;99.90;;;;;;5002966;28;20436;-72
2021/08/24 00:41:11;;;;;;;5.40;4.80;;;20.30;99.90;;;;;;5000034;28;21036;-73
2021/08/24 00:43:40;;;;;;;6.30;5.70;;;20.30;99.90;;;;;;4999128;28;20452;-72
2021/08/24 00:46:32;;;;;;;6.87;5.17;;;20.20;99.90;;;;;;5001400;28;20193;-72
2021/08/24 00:48:59;;;;;;;5.77;5.17;;;20.30;99.90;;;;;;4999216;28;20442;-72
2021/08/24 00:51:28;;;;;;;5.83;5.23;;;20.30;99.90;;;;;;4997591;28;20817;-72
2021/08/24 00:53:54;;;;;;;6.70;5.67;;;20.20;99.90;;;;;;5002075;28;20428;-72
2021/08/24 00:56:20;;;;;;;6.20;5.60;;;20.20;99.90;;;;;;4982050;28;20517;-72
2021/08/24 00:58:46;;;;;;;5.60;4.50;;;20.20;99.90;;;;;;4985606;28;20440;-72
2021/08/24 01:01:12;;;;;;;5.57;5.00;;;20.10;99.90;;;;;;4983960;28;20556;-72
2021/08/24 01:03:44;;;;;;;6.20;4.80;;;20.10;99.90;;;;;;4998420;28;20448;-72
2021/08/24 01:06:34;;;;;;;5.87;5.23;;;20.00;99.90;;;;;;4985859;28;20483;-72
2021/08/24 01:09:12;;;;;;;6.27;5.30;;;20.00;99.90;;;;;;5000581;28;20583;-72
2021/08/24 01:12:14;;;;;;;6.67;5.30;;;20.00;99.90;;;;;;5001005;28;20456;-72
2021/08/24 01:14:58;;;;;;;6.07;5.50;;;19.90;99.90;;;;;;4982716;28;20435;-73
2021/08/24 01:17:49;;;;;;;6.27;5.67;;;19.70;99.90;;;;;;5002664;28;20559;-72
2021/08/24 01:20:27;;;;;;;6.63;5.53;;;19.70;99.90;;;;;;5001271;28;20769;-72
2021/08/24 01:23:11;;;;;;;6.80;5.00;;;19.70;99.90;;;;;;4998174;28;20466;-72
2021/08/24 01:25:49;;;;;;;5.73;5.23;;;19.70;99.90;;;;;;5001819;28;20690;-73
2021/08/24 01:28:14;;;;;;;6.33;5.17;;;19.60;99.90;;;;;;4982911;28;20863;-72
2021/08/24 01:31:13;;;;;;;5.77;5.27;;;19.70;99.90;;;;;;4998545;28;20436;-72
2021/08/24 01:33:48;;;;;;;6.73;5.40;;;19.50;99.90;;;;;;4983152;28;20189;-73
2021/08/24 01:36:45;;;;;;;7.10;5.10;;;19.50;99.90;;;;;;4997960;28;20830;-73
2021/08/24 01:39:26;;;;;;;6.30;4.80;;;19.50;99.90;;;;;;4950981;28;20944;-73
2021/08/24 01:42:15;;;;;;;6.70;5.53;;;19.50;99.90;;;;;;4999847;28;20871;-73
2021/08/24 01:44:51;;;;;;;8.07;5.40;;;19.50;99.90;;;;;;5001423;28;20824;-73
2021/08/24 01:47:33;;;;;;;5.17;4.67;;;19.40;99.90;;;;;;4999401;28;20483;-73
2021/08/24 01:50:22;;;;;;;5.57;5.07;;;19.50;99.90;;;;;;4999599;28;20460;-73
2021/08/24 01:52:56;;;;;;;6.90;5.70;;;19.30;99.90;;;;;;4994046;28;20467;-72
2021/08/24 01:55:31;;;;;;;6.00;4.73;;;19.40;99.90;;;;;;5001007;28;20471;-73
2021/08/24 01:58:40;;;;;;;5.70;4.40;;;19.30;99.90;;;;;;5000664;28;20470;-73
2021/08/24 02:01:11;;;;;;;5.73;5.13;;;19.30;99.90;;;;;;4961384;28;20497;-73
2021/08/24 02:03:45;;;;;;;5.63;5.13;;;19.20;99.90;;;;;;5005221;28;20774;-73
2021/08/24 02:06:17;;;;;;;5.63;4.77;;;19.30;99.90;;;;;;4985795;28;20543;-73
2021/08/24 02:08:48;;;;;;;7.17;5.27;;;19.30;99.90;;;;;;5001765;28;20879;-72
2021/08/24 02:11:14;;;;;;;6.03;4.50;;;19.20;99.90;;;;;;5005219;28;20844;-73
2021/08/24 02:13:44;;;;;;;5.80;4.73;;;19.20;99.90;;;;;;4987199;28;20442;-73
2021/08/24 02:16:16;;;;;;;5.20;4.70;;;19.20;99.90;;;;;;5004626;28;20544;-73
2021/08/24 02:18:48;;;;;;;5.13;4.63;;;19.10;99.90;;;;;;4986428;28;20568;-73
2021/08/24 02:21:23;;;;;;;5.50;5.00;;;19.00;99.90;;;;;;4986166;28;20440;-72
2021/08/24 02:23:51;;;;;;;4.87;4.30;;;19.00;99.90;;;;;;5001991;28;20432;-72
2021/08/24 02:26:19;;;;;;;6.27;5.30;;;19.10;99.90;;;;;;5003095;28;20455;-72
2021/08/24 02:28:50;;;;;;;5.97;5.37;;;19.10;99.90;;;;;;4985736;28;20521;-72
2021/08/24 02:31:25;;;;;;;8.13;4.83;;;19.10;99.90;;;;;;5003778;28;20466;-72
2021/08/24 02:34:17;;;;;;;5.10;4.60;;;19.10;99.90;;;;;;5005082;28;21002;-72
2021/08/24 02:37:09;;;;;;;7.13;4.97;;;19.00;99.90;;;;;;4983818;28;20837;-72
2021/08/24 02:40:03;;;;;;;5.33;4.83;;;19.10;99.90;;;;;;4986236;28;20424;-72
2021/08/24 02:42:58;;;;;;;5.00;4.50;;;19.00;99.90;;;;;;5007149;28;20482;-73
2021/08/24 02:45:34;;;;;;;5.33;4.73;;;19.00;99.90;;;;;;5003392;28;20551;-72
2021/08/24 02:48:03;;;;;;;6.00;4.80;;;19.00;99.90;;;;;;5001841;28;20455;-72
2021/08/24 02:50:30;;;;;;;6.00;5.17;;;19.00;99.90;;;;;;5003817;28;20490;-72
2021/08/24 02:52:56;;;;;;;7.20;5.27;;;18.90;99.90;;;;;;4982717;28;20667;-72
2021/08/24 02:55:22;;;;;;;6.97;5.00;;;18.90;99.90;;;;;;5003446;28;20439;-72
2021/08/24 02:57:48;;;;;;;6.30;4.90;;;18.90;99.90;;;;;;4982861;28;20970;-73
2021/08/24 03:00:15;;;;;;;5.47;4.97;;;18.70;99.90;;;;;;5002296;28;20193;-72
2021/08/24 03:02:42;;;;;;;5.10;4.60;;;18.70;99.90;;;;;;4984874;28;20448;-72
2021/08/24 03:05:08;;;;;;;6.07;5.50;;;18.60;99.90;;;;;;5003511;28;20938;-72
2021/08/24 03:07:37;;;;;;;5.17;4.67;;;18.60;99.90;;;;;;4987376;28;20460;-73
2021/08/24 03:10:11;;;;;;;5.30;4.80;;;18.40;99.90;;;;;;4966050;28;20447;-72
2021/08/24 03:13:09;;;;;;;6.30;5.43;;;18.50;99.90;;;;;;5002182;28;21248;-72
2021/08/24 03:15:53;;;;;;;5.43;4.93;;;18.60;99.90;;;;;;4983670;28;20455;-72
2021/08/24 03:18:23;;;;;;;6.57;4.93;;;18.60;99.90;;;;;;5000893;28;20436;-72
2021/08/24 03:20:55;;;;;;;7.43;5.17;;;18.60;99.90;;;;;;4988298;28;20440;-72
2021/08/24 03:23:23;;;;;;;9.93;5.70;;;18.50;99.90;;;;;;4983447;28;20454;-73
2021/08/24 03:25:50;;;;;;;9.97;5.27;;;18.50;99.90;;;;;;4970222;28;20841;-73
2021/08/24 03:28:19;;;;;;;5.97;5.47;;;18.40;99.90;;;;;;5004083;28;20428;-73
2021/08/24 03:30:45;;;;;;;5.10;4.60;;;18.50;99.90;;;;;;4971254;28;20911;-72
2021/08/24 03:33:13;;;;;;;6.23;5.43;;;18.50;99.90;;;;;;5006103;28;20852;-72
2021/08/24 03:35:41;;;;;;;7.37;5.50;;;18.40;99.90;;;;;;4986392;28;20435;-73
2021/08/24 03:38:07;;;;;;;7.00;5.20;;;18.30;99.90;;;;;;4971336;28;20495;-72
2021/08/24 03:40:34;;;;;;;7.40;5.20;;;18.30;99.90;;;;;;5003905;28;20436;-72
2021/08/24 03:43:00;;;;;;;8.13;5.17;;;18.20;99.90;;;;;;5004107;28;20191;-73
2021/08/24 03:45:26;;;;;;;6.20;5.00;;;18.20;99.90;;;;;;5006074;28;20805;-73
2021/08/24 03:47:52;;;;;;;6.20;5.63;;;18.30;99.90;;;;;;5002429;28;20458;-73
2021/08/24 03:50:18;;;;;;;6.87;5.90;;;18.20;99.90;;;;;;4999742;28;20196;-72
2021/08/24 03:52:44;;;;;;;6.17;5.57;;;18.20;99.90;;;;;;4987189;28;20275;-72
2021/08/24 03:55:10;;;;;;;6.23;5.63;;;18.20;99.90;;;;;;4985400;28;20452;-72
2021/08/24 03:57:36;;;;;;;5.13;4.63;;;18.20;99.90;;;;;;4987285;28;20581;-72
2021/08/24 04:00:04;;;;;;;6.40;5.80;;;18.20;99.90;;;;;;4987224;28;20429;-72
2021/08/24 04:02:30;;;;;;;6.90;5.37;;;18.20;99.90;;;;;;4983957;28;20542;-72
2021/08/24 04:04:56;;;;;;;6.40;5.70;;;18.10;99.90;;;;;;4988113;28;20460;-73
2021/08/24 04:07:23;;;;;;;6.67;5.57;;;18.00;99.90;;;;;;4968956;28;20444;-67
2021/08/24 04:09:51;;;;;;;6.40;5.20;;;17.90;99.90;;;;;;5001234;28;20220;-67
2021/08/24 04:12:17;;;;;;;6.50;5.80;;;18.00;99.90;;;;;;4999915;28;20974;-67
2021/08/24 04:14:43;;;;;;;8.37;5.40;;;17.90;99.90;;;;;;4999576;28;20494;-67
2021/08/24 04:17:09;;;;;;;6.30;5.70;;;17.90;99.90;;;;;;5003466;28;20871;-67
2021/08/24 04:19:35;;;;;;;5.53;5.03;;;17.80;99.90;;;;;;5002864;28;20178;-67
2021/08/24 04:22:00;;;;;;;7.10;5.57;;;17.80;99.90;;;;;;4988472;28;20455;-66
2021/08/24 04:24:26;;;;;;;5.50;4.90;;;17.90;99.90;;;;;;4986282;28;20193;-67
2021/08/24 04:26:52;;;;;;;6.10;5.50;;;17.90;99.90;;;;;;5000049;28;20197;-67
2021/08/24 04:29:17;;;;;;;7.23;5.20;;;17.90;99.90;;;;;;5004219;28;20205;-67
2021/08/24 04:31:43;;;;;;;10.63;5.50;;;17.70;99.90;;;;;;5002974;28;20220;-67
2021/08/24 04:34:09;;;;;;;6.67;5.17;;;17.80;99.90;;;;;;5003778;28;20227;-67
2021/08/24 04:36:35;;;;;;;14.43;5.53;;;17.90;99.90;;;;;;5002342;28;20232;-66
2021/08/24 04:39:00;;;;;;;6.13;4.60;;;17.90;99.90;;;;;;5001205;28;20182;-67
2021/08/24 04:41:27;;;;;;;6.17;5.57;;;17.80;99.90;;;;;;5001224;28;20536;-67
2021/08/24 04:43:53;;;;;;;7.83;5.30;;;17.80;99.90;;;;;;4984485;28;20277;-67
2021/08/24 04:46:19;;;;;;;5.97;5.40;;;17.80;99.90;;;;;;5000937;28;20459;-66
2021/08/24 04:48:44;;;;;;;7.10;5.80;;;17.80;99.90;;;;;;5003231;28;20709;-66
2021/08/24 04:51:10;;;;;;;5.20;4.70;;;17.80;99.90;;;;;;5000623;28;20217;-67
2021/08/24 04:53:35;;;;;;;6.20;5.60;;;17.80;99.90;;;;;;5001905;28;20338;-67
2021/08/24 04:56:01;;;;;;;6.97;5.80;;;17.80;99.90;;;;;;5002443;28;20205;-67
2021/08/24 04:58:27;;;;;;;6.30;5.73;;;17.70;99.90;;;;;;5000091;28;20193;-67
2021/08/24 05:00:53;;;;;;;6.43;5.20;;;17.70;99.90;;;;;;5002654;28;20235;-67
2021/08/24 05:03:18;;;;;;;8.23;5.87;;;17.70;99.90;;;;;;4985719;28;20193;-67
2021/08/24 05:05:45;;;;;;;7.67;5.07;;;17.70;99.90;;;;;;4985481;28;20547;-67
2021/08/24 05:08:11;;;;;;;6.40;5.57;;;17.80;99.90;;;;;;5001840;28;20180;-67
2021/08/24 05:10:36;;;;;;;6.27;5.13;;;17.70;99.90;;;;;;4984744;28;20447;-67
2021/08/24 05:13:03;;;;;;;7.53;6.07;;;17.70;99.90;;;;;;5002182;28;20611;-67
2021/08/24 05:15:29;;;;;;;6.50;5.47;;;17.70;99.90;;;;;;5001013;28;20666;-67
2021/08/24 05:17:55;;;;;;;9.50;5.77;;;17.60;99.90;;;;;;5001376;28;20444;-67
2021/08/24 05:20:21;;;;;;;7.63;6.23;;;17.60;99.90;;;;;;4999988;28;20840;-66
2021/08/24 05:22:48;;;;;;;7.53;6.27;;;17.60;99.90;;;;;;4999048;28;20524;-67
2021/08/24 05:25:17;;;;;;;5.90;5.30;;;17.50;99.90;;;;;;4986280;28;20432;-67
2021/08/24 05:27:43;;;;;;;7.20;6.27;;;17.40;99.90;;;;;;4985258;28;20551;-67
2021/08/24 05:30:13;;;;;;;5.50;5.00;;;17.50;99.90;;;;;;4983735;28;20535;-67
2021/08/24 05:32:39;;;;;;;7.90;6.40;;;17.50;99.90;;;;;;5002586;28;20213;-67
2021/08/24 05:35:05;;;;;;;6.60;6.00;;;17.50;99.90;;;;;;5004696;28;20486;-67
2021/08/24 05:37:31;;;;;;;6.10;5.50;;;17.30;99.90;;;;;;5001656;28;20957;-67
2021/08/24 05:39:56;;;;;;;6.53;5.90;;;17.30;99.90;;;;;;4987579;28;20420;-67
2021/08/24 05:42:22;;;;;;;6.57;5.97;;;17.20;99.90;;;;;;5003167;28;20280;-67
2021/08/24 05:44:48;;;;;;;7.03;5.90;;;17.30;99.90;;;;;;5001014;28;20190;-67
2021/08/24 05:47:14;;;;;;;9.37;5.77;;;17.20;99.90;;;;;;4999579;28;20809;-67
2021/08/24 05:49:40;;;;;;;7.10;5.80;;;17.20;99.90;;;;;;4983339;28;20189;-67
2021/08/24 05:52:09;;;;;;;6.50;5.90;;;17.20;99.90;;;;;;5002836;28;20472;-67
2021/08/24 05:54:36;;;;;;;7.27;6.20;;;17.10;99.90;;;;;;4985868;28;20192;-67
2021/08/24 05:57:04;;;;;;;7.00;6.03;;;17.20;99.90;;;;;;5000519;28;20448;-67
2021/08/24 05:59:31;;;;;;;11.93;6.23;;;17.20;99.90;;;;;;4986794;28;20424;-73
2021/08/24 06:01:57;;;;;;;6.53;5.83;;;17.30;99.90;;;;;;5000982;28;20486;-73
2021/08/24 06:04:23;;;;;;;9.67;7.30;;;17.30;99.90;;;;;;5002642;28;20424;-72
2021/08/24 06:06:49;;;;;;;8.30;7.07;;;17.20;99.90;;;;;;4985969;28;20292;-72
2021/08/24 06:09:14;;;;;;;11.87;6.00;;;17.20;99.90;;;;;;4995853;28;20522;-73
2021/08/24 06:11:50;;;;;;;8.27;6.60;;;17.20;99.90;;;;;;5001590;28;20244;-74
2021/08/24 06:14:20;;;;;;;7.63;6.07;;;17.30;99.90;;;;;;5001779;28;20169;-73
2021/08/24 06:16:54;;;;;;;10.30;6.20;;;17.40;99.90;;;;;;4985080;28;20543;-73
2021/08/24 06:19:20;;;;;;;7.50;6.50;;;17.40;99.90;;;;;;5004819;28;20487;-73
2021/08/24 06:21:46;;;;;;;8.43;6.30;;;17.40;99.90;;;;;;4964543;28;20832;-73
2021/08/24 06:24:11;;;;;;;8.90;6.00;;;17.30;99.90;;;;;;4984866;28;20443;-73
2021/08/24 06:26:37;;;;;;;7.80;6.70;;;17.30;99.90;;;;;;4984639;28;20676;-72
2021/08/24 06:29:04;;;;;;;6.63;5.57;;;17.30;99.90;;;;;;5000237;28;20256;-73
2021/08/24 06:31:32;;;;;;;6.80;6.10;;;17.40;99.90;;;;;;5000549;28;20564;-73
2021/08/24 06:33:59;;;;;;;7.30;6.50;;;17.50;99.90;;;;;;5000537;28;20444;-72
2021/08/24 06:36:25;;;;;;;10.20;7.83;;;17.60;99.90;;;;;;4968780;28;20460;-72
2021/08/24 06:38:51;;;;;;;6.37;5.77;;;17.60;99.90;;;;;;4996419;28;20475;-72
2021/08/24 06:41:18;;;;;;;7.13;6.43;;;17.60;99.90;;;;;;4998348;28;20998;-72
2021/08/24 06:43:45;;;;;;;6.90;6.20;;;17.60;99.90;;;;;;4980997;28;20435;-73
2021/08/24 06:46:11;;;;;;;8.40;6.73;;;17.50;99.90;;;;;;4998535;28;20447;-73
2021/08/24 06:48:38;;;;;;;8.83;5.80;;;17.60;99.90;;;;;;5002089;28;20439;-73
2021/08/24 06:51:04;;;;;;;8.10;6.30;;;17.60;99.90;;;;;;4985515;28;20642;-73
2021/08/24 06:53:30;;;;;;;6.57;5.97;;;17.60;99.90;;;;;;5004393;28;20554;-73
2021/08/24 06:56:27;;;;;;;6.67;5.77;;;17.80;99.90;;;;;;5002570;28;20433;-73
2021/08/24 06:59:36;;;;;;;6.87;6.17;;;17.90;99.90;;;;;;4999861;28;20452;-73
2021/08/24 07:02:05;;;;;;;8.70;7.27;;;17.90;99.90;;;;;;4985776;28;20484;-73
2021/08/24 07:04:34;;;;;;;13.00;6.70;;;17.90;99.90;;;;;;5005478;28;20428;-73
2021/08/24 07:07:00;;;;;;;10.07;6.70;;;17.90;99.90;;;;;;4969424;28;20854;-73
2021/08/24 07:09:27;;;;;;;8.20;6.17;;;18.10;99.90;;;;;;4999339;28;20436;-72
2021/08/24 07:11:54;;;;;;;7.27;6.10;;;18.20;99.90;;;;;;4972067;28;20272;-71
2021/08/24 07:14:25;;;;;;;7.57;5.30;;;18.10;99.90;;;;;;5005805;28;20432;-72
2021/08/24 07:16:53;;;;;;;5.87;5.27;;;18.20;99.90;;;;;;4988926;28;20463;-72
2021/08/24 07:19:20;;;;;;;7.87;5.30;;;18.30;99.90;;;;;;5003975;28;20444;-71
2021/08/24 07:22:28;;;;;;;5.50;5.00;;;18.30;99.90;;;;;;4957205;28;20598;-72
2021/08/24 07:32:24;;;;;;;5.63;4.50;;;18.50;99.90;;;;;;4890988;29;20512;-72
2021/08/24 07:35:03;;;;;;;7.60;4.80;;;18.40;99.90;;;;;;4922987;28;20528;-68
2021/08/24 07:37:35;;;;;;;7.20;4.53;;;18.50;99.90;;;;;;4974606;28;20456;-69
2021/08/24 07:40:16;;;;;;;5.70;4.77;;;18.60;99.90;;;;;;4986332;28;20424;-69
2021/08/24 07:43:25;;;;;;;6.60;5.67;;;18.50;99.90;;;;;;5000135;28;20432;-69
2021/08/24 07:45:56;;;;;;;4.70;4.20;;;18.50;99.90;;;;;;4987175;28;20468;-67
2021/08/24 07:49:01;;;;;;;5.10;4.60;;;18.60;99.90;;;;;;4999408;28;20808;-71
2021/08/24 07:52:07;;;;;;;4.17;3.60;;;18.60;99.90;;;;;;4994173;28;20471;-69
2021/08/24 07:55:04;;;;;;;5.70;4.40;;;18.60;99.90;;;;;;5002926;28;20455;-70
2021/08/24 07:57:32;;;;;;;4.23;3.17;;;18.60;99.90;;;;;;4988543;28;22319;-74
2021/08/24 08:00:00;;;;;;;5.70;3.60;;;18.80;99.90;;;;;;4999575;28;20509;-72
2021/08/24 08:02:29;;;;;;;4.30;3.90;;;18.70;99.90;;;;;;4972778;28;20436;-70
2021/08/24 08:05:07;;;;;;;5.07;3.67;;;18.70;99.90;;;;;;4983080;28;20493;-74
2021/08/24 08:07:46;;;;;;;3.63;2.80;;;18.80;99.90;;;;;;4985093;28;20454;-69
2021/08/24 08:10:22;;;;;;;5.73;4.30;;;18.80;99.90;;;;;;5005388;28;20734;-74
2021/08/24 08:13:22;;;;;;;4.57;3.70;;;18.90;99.90;;;;;;4999672;28;20483;-69
2021/08/24 08:15:47;;;;;;;3.80;3.17;;;18.80;99.90;;;;;;5001445;28;20461;-73
2021/08/24 08:18:13;;;;;;;8.43;3.60;;;18.90;99.90;;;;;;4957994;28;20539;-69
2021/08/24 08:20:39;;;;;;;3.60;3.17;;;18.80;99.90;;;;;;4987798;28;20197;-67
2021/08/24 08:23:19;;;;;;;6.53;3.97;;;18.90;99.90;;;;;;5017929;28;20447;-67
2021/08/24 08:25:50;;;;;;;6.80;4.33;;;18.90;99.90;;;;;;5003112;28;20511;-70
2021/08/24 08:28:17;;;;;;;20.37;7.23;;;18.90;99.90;;;;;;4985814;28;20453;-71
2021/08/24 08:30:46;;;;;;;9.60;4.13;;;19.00;99.90;;;;;;4988919;28;20996;-71
2021/08/24 08:33:15;;;;;;;6.10;4.03;;;19.00;99.90;;;;;;4988970;28;20849;-67
2021/08/24 08:35:42;;;;;;;3.20;2.90;;;19.00;99.90;;;;;;4984727;28;20448;-67
2021/08/24 08:38:08;;;;;;;3.40;2.93;;;18.90;99.90;;;;;;4997448;28;20476;-67
2021/08/24 08:40:52;;;;;;;3.23;2.70;;;19.00;99.90;;;;;;4986631;28;20428;-67
2021/08/24 08:43:46;;;;;;;5.20;3.50;;;19.00;99.90;;;;;;4983596;28;20433;-67
2021/08/24 08:46:29;;;;;;;8.17;3.93;;;19.10;99.90;;;;;;4983407;28;21049;-68
2021/08/24 08:49:13;;;;;;;5.13;3.30;;;19.00;99.90;;;;;;5001955;28;20472;-68
2021/08/24 08:51:54;;;;;;;5.23;3.57;;;19.10;99.90;;;;;;4983339;28;20517;-68
2021/08/24 08:54:38;;;;;;;3.50;3.17;;;19.10;99.90;;;;;;5002692;28;20451;-68
2021/08/24 08:57:12;;;;;;;3.97;3.57;;;19.20;99.90;;;;;;5000123;28;20475;-68
2021/08/24 09:00:06;;;;;;;9.13;4.23;;;19.20;99.90;;;;;;4970695;28;21230;-72
2021/08/24 09:02:41;;;;;;;5.50;4.53;;;19.20;99.90;;;;;;5000623;28;20444;-72
2021/08/24 09:05:09;;;;;;;5.20;3.80;;;19.30;99.90;;;;;;4996478;28;20452;-72
2021/08/24 09:07:39;;;;;;;5.70;4.33;;;19.30;99.90;;;;;;4982771;28;20468;-71
2021/08/24 09:10:07;;;;;;;3.53;3.23;;;19.40;99.90;;;;;;4984374;28;20517;-72
2021/08/24 09:12:36;;;;;;;3.70;3.30;;;19.60;99.90;;;;;;4998632;28;20869;-72
2021/08/24 09:15:05;;;;;;;3.80;3.23;;;19.60;99.90;;;;;;5000137;28;20527;-72
2021/08/24 09:17:36;;;;;;;4.53;3.10;;;19.70;99.90;;;;;;4983379;28;20457;-72
2021/08/24 09:20:31;;;;;;;5.53;3.27;;;19.80;99.90;;;;;;4998607;28;20432;-72
2021/08/24 09:22:58;;;;;;;4.27;2.97;;;19.80;99.90;;;;;;4981590;28;20924;-71
2021/08/24 09:25:38;;;;;;;5.40;3.40;;;19.90;99.90;;;;;;4996908;28;20452;-71
2021/08/24 09:28:16;;;;;;;3.90;3.50;;;20.00;99.90;;;;;;5014354;28;20529;-71
2021/08/24 09:30:43;;;;;;;4.47;3.57;;;20.00;99.90;;;;;;4985749;28;20522;-71
2021/08/24 09:33:11;;;;;;;3.93;3.63;;;20.00;99.90;;;;;;4999698;28;20464;-71
2021/08/24 09:35:45;;;;;;;4.77;3.57;;;19.90;99.90;;;;;;4982974;28;20444;-71
2021/08/24 09:38:20;;;;;;;7.50;3.30;;;20.00;99.90;;;;;;5000368;28;20446;-71
2021/08/24 09:40:53;;;;;;;7.30;3.97;;;20.00;99.90;;;;;;4982083;28;20443;-71
2021/08/24 09:43:33;;;;;;;3.33;3.00;;;20.20;99.90;;;;;;4984032;28;20511;-71
2021/08/24 09:46:27;;;;;;;4.10;3.47;;;20.20;99.90;;;;;;4978261;28;20954;-71
2021/08/24 09:48:58;;;;;;;3.40;2.83;;;20.30;99.90;;;;;;4987340;28;20431;-70
2021/08/24 09:51:52;;;;;;;6.77;3.10;;;20.50;99.90;;;;;;5002060;28;20473;-71
2021/08/24 09:54:20;;;;;;;3.40;2.70;;;20.60;99.90;;;;;;4982940;28;20834;-70
2021/08/24 09:56:54;;;;;;;3.13;2.80;;;20.80;99.90;;;;;;4981294;28;21024;-70
2021/08/24 09:59:30;;;;;;;3.80;2.90;;;20.80;99.90;;;;;;4983258;28;20432;-69
2021/08/24 10:01:56;;;;;;;4.80;3.30;;;20.90;99.90;;;;;;4964508;28;20479;-67
2021/08/24 10:04:22;;;;;;;3.87;3.47;;;21.10;99.90;;;;;;4997501;28;20922;-67
2021/08/24 10:07:01;;;;;;;4.33;2.80;;;21.30;99.90;;;;;;4997684;28;20476;-67
2021/08/24 10:09:31;;;;;;;4.13;3.07;;;21.40;99.90;;;;;;4995495;28;20435;-72
2021/08/24 10:12:21;;;;;;;5.33;2.80;;;21.40;99.90;;;;;;4985741;28;20566;-71
2021/08/24 10:14:49;;;;;;;3.10;2.80;;;21.40;99.90;;;;;;4999689;28;20930;-71
2021/08/24 10:17:34;;;;;;;3.50;3.20;;;21.50;99.90;;;;;;4984728;28;20460;-72
2021/08/24 10:20:03;;;;;;;3.93;3.20;;;21.60;99.90;;;;;;4998580;28;20440;-72
2021/08/24 10:22:36;;;;;;;5.40;3.33;;;21.70;99.90;;;;;;5000160;28;20439;-72
2021/08/24 10:25:09;;;;;;;3.40;3.10;;;21.90;99.90;;;;;;5001634;28;20447;-73
2021/08/24 10:27:55;;;;;;;9.53;3.20;;;22.10;99.90;;;;;;4989279;28;20463;-73
2021/08/24 10:30:57;;;;;;;4.47;3.40;;;22.10;99.90;;;;;;4988637;28;20443;-73
2021/08/24 10:33:34;;;;;;;3.43;3.03;;;22.10;99.90;;;;;;4966957;28;20539;-73
2021/08/24 10:36:12;;;;;;;5.30;2.93;;;22.20;99.90;;;;;;5003755;28;20427;-73
2021/08/24 10:38:55;;;;;;;4.50;3.50;;;22.00;99.90;;;;;;5006501;28;20429;-68
2021/08/24 10:41:31;;;;;;;4.60;4.03;;;22.00;99.90;;;;;;4986062;28;20495;-68
2021/08/24 10:44:00;;;;;;;4.60;4.07;;;22.00;99.90;;;;;;4981400;28;20432;-68
2021/08/24 10:46:27;;;;;;;3.80;3.27;;;22.10;99.90;;;;;;4988657;28;20789;-68
2021/08/24 10:48:54;;;;;;;5.13;4.17;;;22.10;99.90;;;;;;5004027;28;20440;-68
2021/08/24 10:51:40;;;;;;;3.60;3.07;;;22.30;99.90;;;;;;5002233;28;20541;-67
2021/08/24 10:54:44;;;;;;;3.57;3.23;;;22.40;99.90;;;;;;4994105;28;20439;-68
2021/08/24 10:57:12;;;;;;;3.13;2.83;;;22.40;99.90;;;;;;4956118;28;20461;-69
2021/08/24 11:00:00;;;;;;;3.80;3.20;;;22.50;99.90;;;;;;5002368;28;20452;-68
2021/08/24 11:03:07;;;;;;;5.03;3.80;;;22.60;99.90;;;;;;4999694;28;21026;-69
2021/08/24 11:05:46;;;;;;;4.40;3.33;;;22.50;99.90;;;;;;4973875;28;20496;-69
2021/08/24 11:08:36;;;;;;;3.40;3.10;;;22.50;99.90;;;;;;4999118;28;20427;-68
2021/08/24 11:11:11;;;;;;;3.80;3.27;;;22.20;99.90;;;;;;5001504;28;20550;-70
2021/08/24 11:13:47;;;;;;;3.87;3.40;;;22.40;99.90;;;;;;4985471;28;20424;-70
2021/08/24 11:16:29;;;;;;;3.90;3.20;;;22.50;99.90;;;;;;4997650;28;20540;-70
2021/08/24 11:19:07;;;;;;;6.63;5.70;;;22.40;99.90;;;;;;5002966;28;20441;-70
2021/08/24 11:21:46;;;;;;;8.23;3.83;;;22.50;99.90;;;;;;4987114;28;20444;-68
2021/08/24 11:24:47;;;;;;;3.70;3.37;;;22.40;99.90;;;;;;4987809;28;20444;-71
2021/08/24 11:27:21;;;;;;;4.10;3.70;;;22.10;99.90;;;;;;4981383;28;20456;-72
2021/08/24 11:29:58;;;;;;;4.00;3.60;;;22.40;99.90;;;;;;4981866;28;20435;-72
2021/08/24 11:32:40;;;;;;;4.67;3.40;;;22.80;99.90;;;;;;4998035;28;20498;-72
2021/08/24 11:35:19;;;;;;;4.63;3.53;;;22.80;99.90;;;;;;4999020;28;20424;-72
2021/08/24 11:37:52;;;;;;;4.33;3.87;;;22.90;99.90;;;;;;4980078;28;20455;-72
2021/08/24 11:40:35;;;;;;;5.70;4.30;;;22.70;99.90;;;;;;4984640;28;20436;-71
2021/08/24 11:43:05;;;;;;;6.13;3.60;;;22.70;99.90;;;;;;4997753;28;20468;-72
2021/08/24 11:45:49;;;;;;;5.80;4.00;;;22.80;99.90;;;;;;4982063;28;20445;-72
2021/08/24 11:48:27;;;;;;;5.10;4.23;;;22.80;99.90;;;;;;4982695;28;20538;-72
2021/08/24 11:51:02;;;;;;;4.17;3.80;;;22.70;99.90;;;;;;5000679;28;20954;-71
2021/08/24 11:53:49;;;;;;;5.03;3.70;;;22.80;99.90;;;;;;4981723;28;20436;-72
2021/08/24 11:56:27;;;;;;;3.80;3.17;;;22.80;99.90;;;;;;4967459;28;20561;-72
2021/08/24 11:58:54;;;;;;;6.70;4.40;;;22.80;99.90;;;;;;4981582;28;21137;-72
2021/08/24 12:01:22;;;;;;;4.07;3.50;;;22.80;99.90;;;;;;4988567;28;20440;-72
2021/08/24 12:03:54;;;;;;;3.83;3.50;;;22.80;99.90;;;;;;5000621;28;20431;-73
2021/08/24 12:06:38;;;;;;;4.60;4.00;;;22.80;99.90;;;;;;4998790;28;20710;-72
2021/08/24 12:09:05;;;;;;;9.30;4.07;;;23.00;99.90;;;;;;5000414;28;20445;-72
2021/08/24 12:11:48;;;;;;;4.90;4.20;;;23.10;99.90;;;;;;4967691;28;20476;-71
2021/08/24 12:14:30;;;;;;;6.30;3.80;;;23.10;99.90;;;;;;4996862;28;20472;-68
2021/08/24 12:17:23;;;;;;;4.40;4.00;;;23.00;99.90;;;;;;4984349;28;20505;-68
2021/08/24 12:20:40;;;;;;;4.47;3.90;;;23.30;99.90;;;;;;4982317;28;20850;-68
2021/08/24 12:23:10;;;;;;;6.80;3.77;;;23.40;99.90;;;;;;4917716;29;20514;-69
2021/08/24 12:25:51;;;;;;;5.47;4.20;;;23.50;99.90;;;;;;4989649;28;20963;-69
2021/08/24 12:28:16;;;;;;;4.63;4.00;;;23.60;99.90;;;;;;4985130;28;20502;-73
2021/08/24 12:30:58;;;;;;;6.00;3.93;;;23.40;99.90;;;;;;4997732;28;20452;-73
2021/08/24 12:33:42;;;;;;;5.57;4.40;;;23.30;99.90;;;;;;5000250;28;20605;-74
2021/08/24 12:36:17;;;;;;;4.30;3.63;;;23.20;99.90;;;;;;4983669;28;20443;-74
2021/08/24 12:38:47;;;;;;;4.30;3.70;;;23.10;99.90;;;;;;4997663;28;20436;-73
2021/08/24 12:41:31;;;;;;;4.10;3.70;;;23.40;99.90;;;;;;4999102;28;20448;-73
2021/08/24 12:44:23;;;;;;;4.03;3.70;;;23.50;99.90;;;;;;4983104;28;20436;-73
2021/08/24 12:47:32;;;;;;;4.40;4.00;;;23.70;99.90;;;;;;4998047;28;20448;-73
2021/08/24 12:50:17;;;;;;;5.30;3.90;;;23.80;99.90;;;;;;5000068;28;20433;-73
2021/08/24 12:52:48;;;;;;;5.20;4.50;;;23.70;99.90;;;;;;5001931;28;20464;-74
2021/08/24 12:55:38;;;;;;;5.83;4.00;;;23.40;99.90;;;;;;4980536;28;20478;-74
2021/08/24 12:58:03;;;;;;;4.70;4.10;;;23.30;99.90;;;;;;4980773;28;20455;-73
2021/08/24 13:00:38;;;;;;;6.43;5.83;;;22.90;99.90;;;;;;4999143;28;20435;-73
2021/08/24 13:03:25;;;;;;;4.63;3.70;;;23.10;99.90;;;;;;4982411;28;20452;-73
2021/08/24 13:06:20;;;;;;;7.10;5.87;;;23.00;99.90;;;;;;4996873;28;20591;-73
2021/08/24 13:08:48;;;;;;;6.00;5.40;;;23.00;99.90;;;;;;4983054;28;20432;-73
2021/08/24 13:11:35;;;;;;;7.27;5.83;;;23.00;99.90;;;;;;4982665;28;20483;-73
2021/08/24 13:14:22;;;;;;;6.27;5.20;;;23.00;99.90;;;;;;4997491;28;20487;-73
2021/08/24 13:16:54;;;;;;;6.37;4.33;;;22.90;99.90;;;;;;5000642;28;20455;-73
2021/08/24 13:19:27;;;;;;;4.67;4.10;;;23.20;99.90;;;;;;4981685;28;20957;-73
2021/08/24 13:22:05;;;;;;;8.70;4.33;;;22.90;99.90;;;;;;4997928;28;20432;-73
2021/08/24 13:24:42;;;;;;;5.30;4.23;;;23.00;99.90;;;;;;4977594;28;21024;-73
2021/08/24 13:27:29;;;;;;;4.17;3.77;;;23.00;99.90;;;;;;4981753;28;21373;-73
2021/08/24 13:30:01;;;;;;;6.13;3.70;;;23.00;99.90;;;;;;4992598;28;20441;-74